Time;durP1;ratioP1;P1;durP2;ratioP2;P2;SDS_P1;SDS_P2;PMS_P1;PMS_P2;Temp;Humidity;BMP_temperature;BMP_pressure;BME280_temperature;BME280_humidity;BME280_pressure;Samples;Min_cycle;Max_cycle;Signal;HPM_P1;HPM_P2
2022/05/04 00:02:25;;;;;;;21.23;11.10;;;11.20;51.90;;;;;;5092059;28;20395;-74
2022/05/04 00:04:51;;;;;;;23.38;11.18;;;11.10;52.70;;;;;;5092024;28;20386;-74
2022/05/04 00:07:16;;;;;;;23.48;11.55;;;11.10;52.60;;;;;;5090664;28;20406;-74
2022/05/04 00:09:42;;;;;;;21.30;11.00;;;11.00;53.40;;;;;;5092406;28;20417;-74
2022/05/04 00:12:08;;;;;;;23.42;11.70;;;10.90;54.60;;;;;;5073821;28;20398;-74
2022/05/04 00:14:34;;;;;;;28.63;12.60;;;11.00;53.60;;;;;;5092533;28;20978;-73
2022/05/04 00:16:59;;;;;;;22.13;11.23;;;10.90;54.00;;;;;;5091716;28;20489;-74
2022/05/04 00:19:25;;;;;;;21.33;11.30;;;10.90;53.50;;;;;;5092679;28;20378;-74
2022/05/04 00:21:50;;;;;;;20.20;10.17;;;10.80;53.60;;;;;;5092218;28;20370;-75
2022/05/04 00:24:19;;;;;;;21.60;10.30;;;10.80;53.10;;;;;;5074462;28;20398;-75
2022/05/04 00:26:45;;;;;;;19.95;10.68;;;10.80;53.50;;;;;;5092586;28;20731;-75
2022/05/04 00:29:11;;;;;;;21.40;10.27;;;10.70;53.90;;;;;;5091380;28;20417;-73
2022/05/04 00:31:37;;;;;;;21.15;9.90;;;10.70;54.70;;;;;;5094573;28;20461;-74
2022/05/04 00:34:03;;;;;;;21.98;10.55;;;10.60;55.00;;;;;;5092469;28;20410;-75
2022/05/04 00:36:29;;;;;;;22.93;9.77;;;10.50;55.40;;;;;;5092606;28;20727;-74
2022/05/04 00:38:55;;;;;;;28.45;9.55;;;10.50;55.50;;;;;;5091339;28;20422;-75
2022/05/04 00:41:20;;;;;;;18.27;9.07;;;10.50;55.80;;;;;;5091959;28;20876;-74
2022/05/04 00:43:53;;;;;;;23.08;9.20;;;10.50;55.00;;;;;;5074229;28;20932;-76
2022/05/04 00:46:20;;;;;;;21.97;9.40;;;10.50;54.60;;;;;;5092185;28;20415;-76
2022/05/04 00:48:46;;;;;;;22.77;10.25;;;10.50;54.60;;;;;;5090508;28;20425;-75
2022/05/04 00:51:12;;;;;;;23.15;10.63;;;10.40;55.50;;;;;;5090900;28;20488;-76
2022/05/04 00:53:40;;;;;;;27.63;10.75;;;10.20;56.80;;;;;;5091582;28;20398;-75
2022/05/04 00:56:08;;;;;;;20.63;9.93;;;10.10;58.10;;;;;;5091984;28;20382;-75
2022/05/04 01:01:20;;;;;;;22.25;9.90;;;10.30;55.00;;;;;;5091874;28;20389;-74
2022/05/04 01:03:45;;;;;;;22.60;10.25;;;10.30;55.30;;;;;;5091905;28;20386;-75
2022/05/04 01:06:12;;;;;;;16.90;10.48;;;10.30;56.00;;;;;;5091834;28;20388;-76
2022/05/04 01:08:38;;;;;;;18.60;9.73;;;10.30;54.30;;;;;;5090239;28;20451;-75
2022/05/04 01:11:04;;;;;;;24.00;9.38;;;10.40;53.70;;;;;;5090755;28;20415;-74
2022/05/04 01:13:30;;;;;;;18.27;8.90;;;10.40;52.80;;;;;;5097927;28;20493;-75
2022/05/04 01:15:56;;;;;;;19.17;9.23;;;10.40;52.90;;;;;;5098452;28;20378;-76
2022/05/04 01:18:21;;;;;;;19.60;9.37;;;10.40;53.80;;;;;;5098650;28;20398;-76
2022/05/04 01:20:47;;;;;;;19.70;8.90;;;10.30;54.00;;;;;;5099807;28;20379;-75
2022/05/04 01:23:13;;;;;;;15.70;9.00;;;10.30;54.30;;;;;;5100198;28;20374;-76
2022/05/04 01:25:38;;;;;;;21.27;9.50;;;10.20;55.20;;;;;;5100208;28;20454;-76
2022/05/04 01:28:05;;;;;;;21.23;9.50;;;10.20;55.60;;;;;;5095411;28;20838;-76
2022/05/04 01:30:32;;;;;;;18.17;8.70;;;10.10;56.20;;;;;;5101423;28;20390;-73
2022/05/04 01:32:59;;;;;;;20.75;9.05;;;10.10;56.40;;;;;;5091517;28;20398;-75
2022/05/04 01:35:25;;;;;;;17.90;9.37;;;9.90;58.30;;;;;;5091434;28;20453;-75
2022/05/04 01:37:50;;;;;;;18.37;9.93;;;9.90;58.80;;;;;;5090232;28;20438;-74
2022/05/04 01:40:16;;;;;;;19.70;9.47;;;9.90;58.10;;;;;;5091109;28;20402;-74
2022/05/04 01:42:41;;;;;;;18.80;9.20;;;10.00;57.10;;;;;;5095181;28;20439;-75
2022/05/04 01:45:09;;;;;;;21.40;9.30;;;10.00;56.60;;;;;;5101538;28;20468;-75
2022/05/04 01:47:35;;;;;;;19.60;9.13;;;10.00;56.20;;;;;;5100987;28;20426;-75
2022/05/04 01:50:00;;;;;;;20.38;9.60;;;10.00;55.50;;;;;;5074840;28;20390;-76
2022/05/04 01:52:26;;;;;;;20.15;9.50;;;10.00;55.50;;;;;;5092126;28;20397;-76
2022/05/04 01:54:52;;;;;;;17.70;9.10;;;9.90;56.20;;;;;;5093773;28;20374;-74
2022/05/04 01:57:19;;;;;;;24.58;10.65;;;9.90;56.80;;;;;;5096465;28;21087;-76
2022/05/04 01:59:45;;;;;;;19.20;9.35;;;9.90;57.70;;;;;;5090278;28;20616;-77
2022/05/04 02:02:11;;;;;;;19.90;10.30;;;9.80;58.10;;;;;;5091063;28;20468;-74
2022/05/04 02:04:38;;;;;;;21.95;10.00;;;9.90;60.90;;;;;;5087261;28;20413;-75
2022/05/04 02:07:04;;;;;;;20.45;9.75;;;10.00;57.30;;;;;;5089379;28;20878;-74
2022/05/04 02:09:30;;;;;;;18.07;9.50;;;9.90;57.40;;;;;;5094423;28;20518;-75
2022/05/04 02:11:56;;;;;;;20.02;9.68;;;9.90;57.20;;;;;;5112517;28;20384;-74
2022/05/04 02:14:22;;;;;;;21.63;10.80;;;9.80;57.40;;;;;;5116423;28;20376;-76
2022/05/04 02:16:47;;;;;;;28.10;10.30;;;9.70;58.90;;;;;;5083735;28;20382;-74
2022/05/04 02:19:13;;;;;;;25.87;10.27;;;9.70;59.30;;;;;;5084892;28;20386;-74
2022/05/04 02:21:39;;;;;;;20.43;10.23;;;9.70;58.60;;;;;;5105142;28;20381;-74
2022/05/04 02:24:05;;;;;;;23.45;9.60;;;9.70;58.70;;;;;;5101936;28;20888;-74
2022/05/04 02:26:30;;;;;;;19.60;9.43;;;9.70;57.90;;;;;;5102748;28;20413;-75
2022/05/04 02:28:56;;;;;;;19.77;10.30;;;9.70;57.90;;;;;;5102832;28;20386;-74
2022/05/04 02:31:21;;;;;;;24.80;10.20;;;9.70;58.20;;;;;;5099081;28;20491;-74
2022/05/04 02:33:47;;;;;;;31.53;10.60;;;9.60;58.50;;;;;;5096327;28;20400;-73
2022/05/04 02:38:58;;;;;;;18.02;10.27;;;9.50;59.50;;;;;;5076674;28;20385;-73
2022/05/04 02:41:23;;;;;;;19.67;10.32;;;9.50;59.20;;;;;;5077571;28;20955;-74
2022/05/04 02:43:49;;;;;;;20.80;9.50;;;9.50;59.00;;;;;;5074325;28;20419;-74
2022/05/04 02:46:17;;;;;;;15.68;9.35;;;9.50;59.20;;;;;;5072940;28;20417;-75
2022/05/04 02:48:43;;;;;;;23.20;9.95;;;9.50;59.50;;;;;;5084272;28;20810;-75
2022/05/04 02:51:08;;;;;;;28.30;10.50;;;9.40;60.30;;;;;;5094965;28;20475;-75
2022/05/04 02:53:35;;;;;;;20.67;9.50;;;9.40;60.70;;;;;;5095201;28;20402;-74
2022/05/04 02:56:01;;;;;;;23.53;10.50;;;9.30;61.80;;;;;;5093830;28;20405;-75
2022/05/04 02:58:27;;;;;;;22.38;11.00;;;9.40;61.20;;;;;;5094159;28;20912;-75
2022/05/04 03:00:53;;;;;;;27.10;10.75;;;9.30;62.00;;;;;;5093536;28;20418;-75
2022/05/04 03:03:18;;;;;;;23.00;11.27;;;9.40;60.90;;;;;;5093701;28;20384;-75
2022/05/04 03:05:44;;;;;;;16.67;10.27;;;9.30;60.70;;;;;;5092685;28;21021;-75
2022/05/04 03:08:10;;;;;;;27.33;11.43;;;9.20;62.40;;;;;;5093661;28;20401;-75
2022/05/04 03:11:54;;;;;;;22.17;9.77;;;9.20;62.60;;;;;;5093315;28;20807;-74
2022/05/04 03:13:21;;;;;;;25.52;10.43;;;9.30;61.50;;;;;;5093321;28;20475;-75
2022/05/04 03:15:47;;;;;;;21.65;10.65;;;9.30;60.90;;;;;;5066352;28;20454;-75
2022/05/04 03:18:12;;;;;;;23.20;10.27;;;9.40;59.70;;;;;;5093584;28;20443;-74
2022/05/04 03:20:38;;;;;;;24.17;10.27;;;9.30;59.60;;;;;;5075283;28;20384;-74
2022/05/04 03:23:04;;;;;;;22.23;9.40;;;9.40;58.80;;;;;;5093636;28;20385;-75
2022/05/04 03:25:29;;;;;;;23.20;10.13;;;9.30;58.80;;;;;;5089278;28;20434;-74
2022/05/04 03:27:55;;;;;;;20.23;10.67;;;9.30;59.10;;;;;;5093233;28;20376;-74
2022/05/04 03:30:20;;;;;;;23.30;10.70;;;9.30;59.60;;;;;;5093432;28;20401;-76
2022/05/04 03:32:46;;;;;;;20.60;11.00;;;9.20;60.10;;;;;;5092776;28;20429;-75
2022/05/04 03:35:11;;;;;;;17.33;10.53;;;9.20;60.00;;;;;;5089612;28;20432;-75
2022/05/04 03:37:37;;;;;;;18.60;10.23;;;9.20;59.60;;;;;;5093052;28;20409;-74
2022/05/04 03:40:03;;;;;;;19.80;9.50;;;9.10;59.40;;;;;;5093194;28;20385;-75
2022/05/04 03:42:29;;;;;;;25.25;10.90;;;9.10;59.80;;;;;;5092687;28;20382;-75
2022/05/04 03:44:54;;;;;;;25.20;11.85;;;9.00;60.70;;;;;;5093089;28;20424;-75
2022/05/04 03:47:20;;;;;;;22.92;11.50;;;8.90;62.70;;;;;;5085698;28;20411;-75
2022/05/04 03:49:45;;;;;;;31.13;11.30;;;8.90;64.20;;;;;;5091376;28;20959;-74
2022/05/04 03:52:11;;;;;;;18.17;11.13;;;8.90;64.50;;;;;;5094839;28;20401;-74
2022/05/04 03:54:37;;;;;;;22.05;10.90;;;8.90;63.30;;;;;;5095428;28;20390;-76
2022/05/04 03:57:03;;;;;;;23.30;10.57;;;8.90;63.00;;;;;;5092119;28;20398;-75
2022/05/04 03:59:31;;;;;;;27.45;11.02;;;8.80;62.60;;;;;;5087710;28;20450;-74
2022/05/04 04:01:59;;;;;;;22.37;10.87;;;8.80;63.40;;;;;;5075717;28;20390;-74
2022/05/04 04:04:25;;;;;;;28.17;11.40;;;8.70;64.50;;;;;;5083406;28;20401;-75
2022/05/04 04:06:50;;;;;;;23.03;10.90;;;8.70;65.80;;;;;;5091537;28;20402;-75
2022/05/04 04:09:16;;;;;;;26.13;12.13;;;8.70;64.80;;;;;;5091303;28;20431;-75
2022/05/04 04:11:42;;;;;;;27.17;12.27;;;8.70;64.50;;;;;;5092685;28;20382;-75
2022/05/04 04:14:09;;;;;;;19.45;11.70;;;8.70;64.50;;;;;;5083649;28;20866;-74
2022/05/04 04:16:34;;;;;;;22.80;10.50;;;8.80;63.70;;;;;;5092488;28;20436;-76
2022/05/04 04:19:00;;;;;;;25.70;12.10;;;8.90;61.70;;;;;;5093875;28;20393;-75
2022/05/04 04:24:10;;;;;;;25.23;11.45;;;8.90;62.70;;;;;;5083274;28;20440;-74
2022/05/04 04:26:37;;;;;;;24.43;10.83;;;8.90;61.10;;;;;;5091665;28;20386;-74
2022/05/04 04:29:03;;;;;;;21.47;11.50;;;8.90;61.00;;;;;;5073739;28;20452;-75
2022/05/04 04:31:29;;;;;;;24.92;11.00;;;8.90;60.70;;;;;;5092198;28;20556;-74
2022/05/04 04:33:54;;;;;;;24.20;11.95;;;8.90;60.20;;;;;;5072688;28;20503;-75
2022/05/04 04:36:20;;;;;;;27.42;11.18;;;8.90;60.10;;;;;;5091843;28;20386;-74
2022/05/04 04:38:45;;;;;;;24.58;10.98;;;8.80;59.60;;;;;;5091816;28;20390;-75
2022/05/04 04:41:11;;;;;;;32.30;12.70;;;8.80;60.40;;;;;;5091657;28;20463;-75
2022/05/04 04:43:37;;;;;;;27.42;11.65;;;8.80;61.10;;;;;;5091619;28;20467;-75
2022/05/04 04:46:03;;;;;;;25.30;10.85;;;8.80;60.80;;;;;;5090544;28;20740;-75
2022/05/04 04:48:28;;;;;;;25.17;11.15;;;8.80;59.70;;;;;;5073300;28;20429;-75
2022/05/04 04:50:54;;;;;;;39.40;13.40;;;8.80;60.70;;;;;;5091254;28;20413;-75
2022/05/04 04:53:19;;;;;;;27.40;11.30;;;8.80;60.30;;;;;;5090467;28;20401;-75
2022/05/04 04:55:45;;;;;;;26.85;11.00;;;8.90;59.90;;;;;;5092377;28;20470;-76
2022/05/04 04:58:12;;;;;;;24.08;10.20;;;8.90;59.10;;;;;;5091984;28;20394;-76
2022/05/04 05:00:37;;;;;;;26.42;11.02;;;8.90;58.90;;;;;;5091515;28;20382;-76
2022/05/04 05:03:03;;;;;;;28.33;10.48;;;8.90;58.90;;;;;;5092576;28;20859;-74
2022/05/04 05:05:29;;;;;;;22.63;9.80;;;8.80;59.40;;;;;;5092499;28;20497;-75
2022/05/04 05:07:54;;;;;;;23.70;11.20;;;8.70;59.90;;;;;;5083207;28;20413;-75
2022/05/04 05:10:20;;;;;;;29.40;10.93;;;8.70;60.50;;;;;;5101148;28;20401;-75
2022/05/04 05:12:45;;;;;;;27.93;11.57;;;8.70;60.30;;;;;;5103074;28;20398;-76
2022/05/04 05:17:55;;;;;;;25.35;11.50;;;8.90;59.00;;;;;;5091655;28;20488;-75
2022/05/04 05:20:21;;;;;;;31.38;11.80;;;9.00;56.00;;;;;;5088928;28;20913;-75
2022/05/04 05:22:46;;;;;;;29.35;12.02;;;9.10;55.40;;;;;;5092689;28;20743;-76
2022/05/04 05:25:12;;;;;;;24.17;12.10;;;9.00;56.10;;;;;;5075579;28;20928;-75
2022/05/04 05:27:37;;;;;;;28.87;12.17;;;9.00;56.60;;;;;;5081763;28;20386;-76
2022/05/04 05:30:04;;;;;;;30.10;12.17;;;9.10;55.30;;;;;;5080963;28;20455;-75
2022/05/04 05:32:30;;;;;;;18.70;10.37;;;9.10;56.30;;;;;;5091704;28;20477;-75
2022/05/04 05:34:55;;;;;;;23.83;10.82;;;9.20;53.70;;;;;;5092129;28;20409;-75
2022/05/04 05:37:21;;;;;;;31.35;11.70;;;9.00;53.80;;;;;;5091394;28;20370;-75
2022/05/04 05:39:47;;;;;;;31.05;12.27;;;9.00;54.90;;;;;;5085928;28;20866;-74
2022/05/04 05:42:13;;;;;;;28.40;10.57;;;9.10;55.50;;;;;;5086089;28;20585;-75
2022/05/04 05:44:39;;;;;;;23.40;11.00;;;9.10;54.90;;;;;;5086072;28;20430;-77
2022/05/04 05:47:05;;;;;;;30.55;11.93;;;9.20;54.50;;;;;;5080379;28;20493;-76
2022/05/04 05:49:30;;;;;;;25.95;11.93;;;9.30;54.70;;;;;;5086350;28;20551;-76
2022/05/04 05:51:56;;;;;;;26.33;11.47;;;9.50;53.40;;;;;;5083864;28;20931;-76
2022/05/04 05:54:21;;;;;;;26.27;11.10;;;9.70;50.80;;;;;;5086863;28;20473;-75
2022/05/04 05:56:47;;;;;;;27.20;11.60;;;9.80;49.10;;;;;;5091108;28;20386;-75
2022/05/04 05:59:13;;;;;;;19.07;12.20;;;9.80;49.30;;;;;;5071818;28;20376;-76
2022/05/04 06:01:39;;;;;;;26.50;12.30;;;9.80;49.20;;;;;;5080031;28;20455;-76
2022/05/04 06:04:05;;;;;;;29.65;12.00;;;9.80;50.10;;;;;;5075229;28;20474;-73
2022/05/04 06:06:31;;;;;;;23.25;12.13;;;9.90;49.00;;;;;;5087807;28;20501;-74
2022/05/04 06:08:56;;;;;;;26.65;11.15;;;10.00;48.40;;;;;;5096416;28;20429;-74
2022/05/04 06:11:22;;;;;;;26.48;11.30;;;10.20;47.10;;;;;;5094997;28;20406;-73
2022/05/04 06:13:51;;;;;;;21.10;10.95;;;10.30;46.00;;;;;;5094205;28;20431;-73
2022/05/04 06:16:17;;;;;;;25.02;11.80;;;10.40;44.60;;;;;;5101743;28;20409;-74
2022/05/04 06:18:42;;;;;;;21.60;11.32;;;10.40;45.30;;;;;;5093003;28;20795;-73
2022/05/04 06:21:08;;;;;;;28.50;11.63;;;10.50;43.70;;;;;;5093482;28;20866;-76
2022/05/04 06:23:34;;;;;;;28.40;11.70;;;10.60;43.70;;;;;;5091043;28;20782;-74
2022/05/04 06:25:59;;;;;;;27.33;12.43;;;10.70;43.40;;;;;;5085079;28;20473;-75
2022/05/04 06:28:28;;;;;;;27.67;12.13;;;10.70;43.10;;;;;;5089402;28;20418;-75
2022/05/04 06:36:22;;;;;;;26.58;12.57;;;10.80;41.60;;;;;;5086306;28;20405;-76
2022/05/04 06:38:47;;;;;;;27.83;12.43;;;10.80;42.40;;;;;;5082888;28;20403;-76
2022/05/04 06:41:14;;;;;;;23.40;12.00;;;10.90;42.10;;;;;;5097075;28;20398;-75
2022/05/04 06:43:40;;;;;;;28.67;11.70;;;11.10;40.90;;;;;;5094779;28;20522;-75
2022/05/04 06:46:06;;;;;;;24.45;11.90;;;11.00;40.00;;;;;;5099926;28;20416;-76
2022/05/04 06:48:31;;;;;;;25.33;12.40;;;11.00;41.30;;;;;;5069014;28;20773;-76
2022/05/04 06:50:58;;;;;;;22.33;11.93;;;10.90;41.90;;;;;;5068393;28;20408;-75
2022/05/04 06:53:23;;;;;;;32.08;13.30;;;10.80;42.10;;;;;;5097519;28;20410;-76
2022/05/04 06:55:49;;;;;;;34.27;13.60;;;10.90;42.20;;;;;;5096229;28;20432;-76
2022/05/04 06:58:15;;;;;;;30.47;12.67;;;11.20;42.00;;;;;;5088240;28;20382;-75
2022/05/04 07:00:40;;;;;;;23.37;13.20;;;11.30;40.30;;;;;;5085354;28;20461;-75
2022/05/04 07:03:06;;;;;;;26.02;12.30;;;11.40;39.70;;;;;;5090852;28;20766;-75
2022/05/04 07:05:32;;;;;;;26.77;12.90;;;11.40;39.70;;;;;;5085356;28;20819;-77
2022/05/04 07:07:57;;;;;;;28.30;13.30;;;11.40;39.90;;;;;;5094879;28;20914;-74
2022/05/04 07:10:23;;;;;;;25.80;13.00;;;11.50;38.70;;;;;;5085781;28;20915;-77
2022/05/04 07:12:49;;;;;;;25.50;13.20;;;11.70;38.80;;;;;;5087092;28;20887;-73
2022/05/04 07:15:14;;;;;;;32.53;13.30;;;11.80;39.70;;;;;;5089027;28;20526;-77
2022/05/04 07:17:40;;;;;;;25.23;13.17;;;12.10;36.50;;;;;;5091666;28;20474;-75
2022/05/04 07:20:06;;;;;;;23.53;14.10;;;12.10;36.20;;;;;;5089381;28;20409;-75
2022/05/04 07:22:32;;;;;;;31.02;13.10;;;12.20;36.30;;;;;;5089681;28;20893;-75
2022/05/04 07:24:57;;;;;;;28.15;14.23;;;12.20;36.20;;;;;;5066683;28;20403;-76
2022/05/04 07:27:23;;;;;;;28.33;13.30;;;12.30;35.70;;;;;;5088811;28;20400;-76
2022/05/04 07:29:49;;;;;;;32.65;13.55;;;12.40;35.70;;;;;;5088727;28;20417;-75
2022/05/04 07:32:14;;;;;;;27.33;13.87;;;12.50;35.70;;;;;;5087127;28;20415;-75
2022/05/04 07:34:40;;;;;;;31.25;15.05;;;12.60;34.40;;;;;;5089052;28;20382;-76
2022/05/04 07:37:06;;;;;;;33.13;14.80;;;12.60;34.40;;;;;;5091310;28;20394;-75
2022/05/04 07:42:27;;;;;;;29.63;13.95;;;12.70;34.50;;;;;;5090111;28;20767;-76
2022/05/04 07:45:01;;;;;;;31.27;15.07;;;12.50;34.40;;;;;;5089365;28;20393;-76
2022/05/04 07:49:58;;;;;;;31.93;14.50;;;12.60;34.00;;;;;;5125952;28;20912;-86
2022/05/04 07:52:31;;;;;;;31.10;14.70;;;12.60;34.00;;;;;;5130609;28;20465;-81
2022/05/04 07:54:57;;;;;;;30.45;14.43;;;12.60;34.50;;;;;;5112216;28;20432;-78
2022/05/04 07:57:23;;;;;;;25.13;14.40;;;12.70;34.40;;;;;;5109780;28;20400;-78
2022/05/04 08:05:20;;;;;;;30.67;14.75;;;12.80;34.30;;;;;;5098843;28;20484;-79
2022/05/04 08:07:46;;;;;;;32.55;15.43;;;13.00;34.30;;;;;;5103974;28;20398;-78
2022/05/04 08:10:13;;;;;;;36.95;15.77;;;13.10;33.90;;;;;;5101270;28;20416;-77
2022/05/04 08:12:38;;;;;;;26.65;14.40;;;13.20;32.10;;;;;;5097077;28;20408;-81
2022/05/04 08:15:04;;;;;;;37.47;14.32;;;13.20;32.60;;;;;;5082044;28;20494;-78
2022/05/04 08:17:30;;;;;;;27.13;14.00;;;13.10;33.50;;;;;;5103095;28;20517;-80
2022/05/04 08:19:56;;;;;;;34.90;15.60;;;13.10;33.40;;;;;;5099648;28;20902;-80
2022/05/04 08:22:21;;;;;;;34.40;15.57;;;13.20;32.90;;;;;;5101807;28;20656;-78
2022/05/04 08:24:47;;;;;;;33.67;15.70;;;13.40;33.00;;;;;;5097691;28;20398;-82
2022/05/04 08:27:13;;;;;;;30.13;15.43;;;13.60;32.10;;;;;;5075122;28;20897;-79
2022/05/04 08:29:38;;;;;;;31.30;14.70;;;13.70;32.40;;;;;;5095152;28;20423;-80
2022/05/04 08:32:04;;;;;;;32.53;15.77;;;13.80;32.10;;;;;;5077161;28;20469;-77
2022/05/04 08:34:30;;;;;;;36.83;15.82;;;13.70;31.00;;;;;;5096054;28;20389;-77
2022/05/04 08:36:55;;;;;;;32.53;14.90;;;13.70;31.10;;;;;;5095606;28;20516;-77
2022/05/04 08:39:21;;;;;;;37.60;15.07;;;13.90;31.50;;;;;;5096915;28;20397;-77
2022/05/04 08:41:46;;;;;;;34.53;16.73;;;14.00;31.10;;;;;;5096470;28;20827;-81
2022/05/04 08:44:12;;;;;;;28.10;16.50;;;14.00;30.00;;;;;;5103193;28;20398;-78
2022/05/04 08:46:40;;;;;;;28.25;15.50;;;14.10;30.00;;;;;;5112031;28;20382;-79
2022/05/04 08:49:06;;;;;;;32.90;16.03;;;14.10;29.40;;;;;;5109511;28;20408;-81
2022/05/04 08:51:34;;;;;;;31.20;15.85;;;14.20;29.90;;;;;;5101691;28;20770;-77
2022/05/04 08:54:00;;;;;;;40.38;16.38;;;14.20;29.50;;;;;;5071255;28;20402;-82
2022/05/04 08:56:26;;;;;;;30.80;14.47;;;14.20;29.40;;;;;;5110254;28;20416;-80
2022/05/04 08:58:51;;;;;;;34.10;15.65;;;14.30;29.60;;;;;;5114460;28;20381;-82
2022/05/04 09:01:17;;;;;;;35.97;16.80;;;14.30;29.80;;;;;;5097632;28;20412;-81
2022/05/04 09:03:43;;;;;;;42.22;18.48;;;14.40;27.90;;;;;;5097659;28;20398;-81
2022/05/04 09:06:09;;;;;;;31.93;16.90;;;14.30;28.50;;;;;;5115219;28;20386;-81
2022/05/04 09:08:58;;;;;;;31.25;17.13;;;14.30;28.60;;;;;;5093438;28;20405;-81
2022/05/04 09:11:24;;;;;;;39.85;18.55;;;14.30;27.50;;;;;;5095414;28;20431;-81
2022/05/04 09:13:50;;;;;;;33.78;18.08;;;14.40;28.90;;;;;;5114631;28;20409;-82
2022/05/04 09:16:31;;;;;;;39.15;18.33;;;14.50;27.60;;;;;;5091490;28;20398;-79
2022/05/04 09:19:00;;;;;;;38.73;17.93;;;14.50;27.60;;;;;;5103990;28;20408;-76
2022/05/04 09:21:26;;;;;;;32.17;17.63;;;14.40;28.00;;;;;;5100793;28;20399;-78
2022/05/04 09:23:53;;;;;;;33.53;16.47;;;14.50;28.00;;;;;;5099213;28;20411;-75
2022/05/04 09:26:20;;;;;;;37.17;18.33;;;14.60;27.20;;;;;;5103466;28;20386;-76
2022/05/04 09:28:51;;;;;;;41.40;19.15;;;14.60;27.40;;;;;;5110683;28;20386;-75
2022/05/04 09:31:20;;;;;;;39.67;17.80;;;14.80;28.30;;;;;;5090543;28;20383;-75
2022/05/04 09:33:57;;;;;;;37.13;18.40;;;15.00;25.90;;;;;;5070708;28;20403;-77
2022/05/04 09:44:54;;;;;;;34.40;17.65;;;14.80;26.80;;;;;;5104810;28;20428;-76
2022/05/04 09:45:15;;;;;;;39.53;19.20;;;15.30;24.90;;;;;;5104768;28;20389;-77
2022/05/04 09:47:45;;;;;;;37.97;20.13;;;15.60;24.00;;;;;;5099065;28;20482;-79
2022/05/04 09:50:11;;;;;;;37.60;19.30;;;15.70;23.80;;;;;;5090061;28;20442;-80
2022/05/04 09:52:46;;;;;;;40.03;20.30;;;15.70;23.80;;;;;;5092079;28;20409;-78
2022/05/04 09:55:19;;;;;;;36.22;21.10;;;15.70;22.70;;;;;;5079547;28;20766;-76
2022/05/04 09:57:47;;;;;;;39.78;20.83;;;15.90;23.80;;;;;;5065518;28;20967;-77
2022/05/04 10:00:14;;;;;;;41.72;21.30;;;15.80;24.00;;;;;;5063207;28;20380;-75
2022/05/04 10:02:41;;;;;;;40.58;19.30;;;15.70;23.60;;;;;;5091750;28;20393;-78
2022/05/04 10:05:08;;;;;;;40.57;18.63;;;15.70;23.70;;;;;;5083536;28;20523;-79
2022/05/04 10:07:37;;;;;;;37.28;19.30;;;15.50;23.60;;;;;;5068808;28;20409;-77
2022/05/04 10:10:07;;;;;;;34.00;17.73;;;15.40;24.30;;;;;;5073750;28;20417;-80
2022/05/04 10:12:38;;;;;;;36.05;17.85;;;15.50;23.70;;;;;;5091887;28;20415;-79
2022/05/04 10:15:10;;;;;;;35.03;19.38;;;15.60;23.30;;;;;;5090616;28;20360;-75
2022/05/04 10:17:57;;;;;;;40.50;18.60;;;15.70;23.70;;;;;;5091720;28;20407;-77
2022/05/04 10:20:32;;;;;;;41.05;21.55;;;15.70;23.10;;;;;;5034026;28;20389;-78
2022/05/04 10:23:23;;;;;;;36.67;18.35;;;15.80;23.20;;;;;;5073015;28;20411;-76
2022/05/04 10:25:50;;;;;;;39.17;19.35;;;15.90;23.40;;;;;;5077009;28;20391;-78
2022/05/04 10:28:19;;;;;;;35.08;19.75;;;15.80;22.80;;;;;;5099241;28;20862;-78
2022/05/04 10:30:50;;;;;;;39.60;20.88;;;15.70;23.40;;;;;;5091185;28;20384;-76
2022/05/04 10:33:19;;;;;;;33.65;18.98;;;15.70;23.10;;;;;;5087728;28;20399;-76
2022/05/04 10:35:46;;;;;;;45.00;22.02;;;15.80;23.40;;;;;;5090407;28;20452;-77
2022/05/04 10:38:27;;;;;;;39.90;22.77;;;15.90;22.80;;;;;;5078915;28;20475;-77
2022/05/04 10:40:58;;;;;;;40.22;22.27;;;16.10;22.00;;;;;;5105590;28;20386;-78
2022/05/04 10:43:34;;;;;;;41.08;21.67;;;16.20;21.30;;;;;;5089527;28;20386;-78
2022/05/04 10:46:28;;;;;;;40.25;22.17;;;16.10;21.40;;;;;;5092733;28;20418;-79
2022/05/04 10:48:55;;;;;;;38.40;20.75;;;16.40;21.70;;;;;;5086640;28;20474;-79
2022/05/04 10:51:29;;;;;;;39.20;22.10;;;16.20;20.60;;;;;;5098841;28;20400;-77
2022/05/04 10:54:01;;;;;;;39.15;22.92;;;16.10;22.40;;;;;;5095847;28;20488;-76
2022/05/04 10:56:34;;;;;;;39.95;20.55;;;16.30;21.00;;;;;;5093529;28;20402;-76
2022/05/04 10:58:59;;;;;;;42.03;21.15;;;16.50;20.80;;;;;;5085841;28;20374;-76
2022/05/04 11:01:32;;;;;;;37.63;21.10;;;16.60;20.80;;;;;;5094851;28;20753;-77
2022/05/04 11:04:09;;;;;;;40.20;21.15;;;16.60;20.10;;;;;;5095724;28;20746;-77
2022/05/04 11:06:54;;;;;;;36.63;21.27;;;16.70;20.10;;;;;;5084073;28;20395;-75
2022/05/04 11:09:21;;;;;;;43.00;21.40;;;16.50;20.50;;;;;;5095075;28;20453;-76
2022/05/04 11:11:51;;;;;;;37.10;20.30;;;16.60;20.10;;;;;;5094801;28;20378;-76
2022/05/04 11:14:19;;;;;;;32.47;20.13;;;16.70;20.00;;;;;;5094981;28;20401;-77
2022/05/04 11:16:49;;;;;;;37.28;20.50;;;16.50;20.00;;;;;;5093296;28;20406;-77
2022/05/04 11:19:15;;;;;;;37.33;19.17;;;16.50;20.80;;;;;;5089264;28;20389;-76
2022/05/04 11:21:41;;;;;;;34.70;19.63;;;16.80;20.10;;;;;;5093035;28;20390;-75
2022/05/04 11:24:09;;;;;;;36.42;20.63;;;16.80;19.40;;;;;;5084325;28;20392;-77
2022/05/04 11:26:39;;;;;;;33.95;17.88;;;17.10;19.40;;;;;;5078200;28;20850;-76
2022/05/04 11:29:20;;;;;;;40.38;19.63;;;16.90;19.80;;;;;;5076161;28;20398;-75
2022/05/04 11:31:55;;;;;;;33.00;19.23;;;16.60;19.60;;;;;;5092694;28;20410;-76
2022/05/04 11:34:25;;;;;;;32.60;20.05;;;16.80;19.70;;;;;;5080681;28;20409;-77
2022/05/04 11:36:52;;;;;;;32.90;19.17;;;16.90;18.40;;;;;;5066114;28;20816;-76
2022/05/04 11:39:20;;;;;;;36.67;17.92;;;17.00;18.70;;;;;;5068358;28;20909;-76
2022/05/04 11:41:47;;;;;;;32.33;17.80;;;17.20;18.00;;;;;;5076019;28;20893;-79
2022/05/04 11:44:14;;;;;;;33.65;18.23;;;17.50;18.00;;;;;;5074761;28;20468;-77
2022/05/04 11:46:44;;;;;;;36.85;17.30;;;17.50;17.40;;;;;;5084592;28;20411;-76
2022/05/04 11:49:10;;;;;;;34.05;19.13;;;17.70;17.60;;;;;;5094289;28;20404;-76
2022/05/04 11:51:36;;;;;;;29.95;16.50;;;17.70;17.00;;;;;;5094213;28;20382;-76
2022/05/04 11:54:03;;;;;;;35.37;16.90;;;17.60;17.30;;;;;;5088084;28;20415;-77
2022/05/04 11:56:28;;;;;;;28.90;16.80;;;17.40;18.20;;;;;;5080957;28;20750;-77
2022/05/04 11:58:54;;;;;;;30.42;16.95;;;17.40;17.30;;;;;;5085393;28;20371;-76
2022/05/04 12:01:20;;;;;;;28.08;16.17;;;17.40;17.60;;;;;;5082870;28;20474;-75
2022/05/04 12:03:46;;;;;;;29.30;16.27;;;17.60;17.30;;;;;;5092527;28;20477;-75
2022/05/04 12:06:12;;;;;;;25.40;15.40;;;17.70;16.80;;;;;;5080804;28;20391;-76
2022/05/04 12:08:40;;;;;;;25.95;16.00;;;17.90;16.20;;;;;;5085829;28;20426;-77
2022/05/04 12:11:07;;;;;;;23.55;13.77;;;18.00;15.60;;;;;;5092783;28;20402;-76
2022/05/04 12:13:36;;;;;;;27.37;14.13;;;17.90;15.40;;;;;;5092724;28;20566;-76
2022/05/04 12:16:02;;;;;;;29.15;14.25;;;17.70;15.80;;;;;;5074516;28;20399;-80
2022/05/04 12:18:30;;;;;;;27.20;12.77;;;17.80;16.60;;;;;;5098967;28;20390;-79
2022/05/04 12:20:56;;;;;;;26.10;12.13;;;17.80;16.00;;;;;;5093859;28;20382;-80
2022/05/04 12:23:22;;;;;;;25.73;12.60;;;17.50;15.00;;;;;;5101429;28;20386;-79
2022/05/04 12:25:48;;;;;;;31.85;12.27;;;17.40;15.20;;;;;;5099896;28;20447;-79
2022/05/04 12:28:14;;;;;;;26.20;12.38;;;17.70;14.90;;;;;;5094988;28;20403;-80
2022/05/04 12:33:37;;;;;;;21.60;11.02;;;17.90;15.30;;;;;;5100809;28;20522;-78
2022/05/04 12:36:06;;;;;;;21.85;10.65;;;17.90;14.70;;;;;;5099838;28;20389;-79
2022/05/04 12:38:34;;;;;;;22.27;10.50;;;17.60;14.30;;;;;;5077849;28;20413;-79
2022/05/04 12:41:01;;;;;;;26.73;12.25;;;17.50;14.40;;;;;;5098068;28;20423;-78
2022/05/04 12:43:38;;;;;;;26.35;10.82;;;17.60;13.60;;;;;;5097176;28;20390;-80
2022/05/04 12:46:09;;;;;;;19.63;10.50;;;17.70;13.80;;;;;;5093220;28;20393;-80
2022/05/04 12:48:38;;;;;;;26.55;11.30;;;17.60;13.00;;;;;;5097407;28;20410;-80
2022/05/04 12:51:04;;;;;;;20.30;10.75;;;17.80;13.30;;;;;;5078084;28;20753;-77
2022/05/04 12:53:30;;;;;;;15.77;10.45;;;17.80;12.60;;;;;;5098476;28;20504;-77
2022/05/04 12:58:40;;;;;;;21.40;11.25;;;17.80;12.60;;;;;;5094202;28;20922;-77
2022/05/04 13:01:07;;;;;;;18.60;10.65;;;17.70;13.00;;;;;;5074620;28;20399;-80
2022/05/04 13:03:33;;;;;;;21.83;10.68;;;17.70;13.30;;;;;;5098185;28;20383;-80
2022/05/04 13:06:00;;;;;;;18.65;10.35;;;17.70;12.50;;;;;;5108052;28;20520;-80
2022/05/04 13:08:26;;;;;;;18.48;9.02;;;17.90;12.60;;;;;;5088177;28;20390;-77
2022/05/04 13:10:52;;;;;;;17.80;8.23;;;17.90;10.60;;;;;;5106830;28;20402;-78